• Join FlightAware (Why Join?)
  • Login
  • US Flag 
12:34AM EDT


 

Airport Tracker/Info


-or-


 

Live Flight TrackerFlight Track Log ✈ DAL1702 ✈ 28-Apr-2012 ✈ KLAS - KATL

Flight Track Log - Related Links

Times and Time Zones

All times are in EDT time to prevent confusion due to time zone crossing. See the DAL1702 flight status page for this flight to view local times or setup timezone preferences in your user account.

Time Position Orientation Groundspeed Altitude Reporting Facility
EDT Latitude Longitude Course Direction KTS MPH feet Rate Location/Type
01:20PM 36.0764 -115.1192 92° East 167 192 3,000  Level Los Angeles Center
01:21PM 36.0733 -115.0089 95° East 249 287 6,100 2,280 Climbing Los Angeles Center
01:23PM 36.0614 -114.8497 100° East 328 377 10,200 1,920 Climbing Los Angeles Center
01:24PM 36.0456 -114.7342 100° East 336 387 11,300 1,740 Climbing Los Angeles Center
01:25PM 36.0272 -114.6011 99° East 362 417 13,700 2,460 Climbing Los Angeles Center
01:26PM 36.0089 -114.4628 101° East 392 451 16,200 2,340 Climbing Los Angeles Center
01:27PM 35.9858 -114.3219 99° East 406 467 18,400 2,040 Climbing Los Angeles Center
01:28PM 35.9669 -114.1761 101° East 418 481 20,300 1,800 Climbing Los Angeles Center
01:29PM 35.9436 -114.0256 100° East 437 503 22,000 1,620 Climbing Los Angeles Center
01:30PM 35.9222 -113.8697 101° East 448 516 23,600 1,500 Climbing Los Angeles Center
01:31PM 35.8983 -113.7164 103° East 453 521 25,100 1,380 Climbing Los Angeles Center
01:32PM 35.8681 -113.5558 101° East 458 527 26,400 1,140 Climbing Los Angeles Center
01:33PM 35.8414 -113.3875 101° East 477 549 27,400 1,080 Climbing Los Angeles Center
01:34PM 35.8144 -113.2194 101° East 493 567 28,600 1,440 Climbing Los Angeles Center
01:35PM 35.7875 -113.0489 101° East 499 574 30,300 1,500 Climbing Los Angeles Center
01:36PM 35.7600 -112.8811 102° East 504 580 31,700 1,200 Climbing Los Angeles Center
01:37PM 35.7303 -112.7108 101° East 504 580 32,800 1,020 Climbing Los Angeles Center
01:39PM 35.6808 -112.3964 103° East 515 593 34,600 900 Climbing Albuquerque Center
01:40PM 35.6483 -112.2256 101° East 515 593 35,400 960 Climbing Albuquerque Center
01:41PM 35.6200 -112.0500 101° East 515 593 36,600 780 Climbing Albuquerque Center
01:42PM 35.5931 -111.8800 92° East 510 587 37,000 180 Climbing Albuquerque Center
01:43PM 35.5869 -111.7058 92° East 510 587 37,000  Level Albuquerque Center
01:44PM 35.5828 -111.5294 93° East 510 587 37,000  Level Albuquerque Center
01:45PM 35.5744 -111.3503 91° East 517 595 37,000  Level Albuquerque Center
01:46PM 35.5711 -111.1892 92° East 524 603 37,000  Level Albuquerque Center
01:48PM 35.5575 -110.8183 92° East 518 596 37,000  Level Albuquerque Center
01:49PM 35.5522 -110.6392 93° East 518 596 37,000  Level Albuquerque Center
01:50PM 35.5458 -110.4808 93° East 518 596 37,000  Level Albuquerque Center
01:51PM 35.5378 -110.3017 92° East 518 596 37,000  Level Albuquerque Center
01:52PM 35.5322 -110.1050 93° East 518 596 37,000  Level Albuquerque Center
01:53PM 35.5236 -109.9311 93° East 518 596 37,000  Level Albuquerque Center
01:54PM 35.5164 -109.7703 93° East 524 603 37,000  Level Albuquerque Center
01:55PM 35.5078 -109.5733 93° East 519 597 37,000  Level Albuquerque Center
01:56PM 35.5003 -109.3972 93° East 519 597 37,000  Level Albuquerque Center
01:57PM 35.4928 -109.2158 93° East 519 597 37,000  Level Albuquerque Center
01:58PM 35.4847 -109.0550 92° East 524 603 37,000  Level Albuquerque Center
01:59PM 35.4792 -108.8611 88° East 519 597 37,000  Level Albuquerque Center
02:00PM 35.4853 -108.6825 85° East 519 597 37,000  Level Albuquerque Center
02:01PM 35.4975 -108.5219 86° East 519 597 37,000  Level Albuquerque Center
02:02PM 35.5097 -108.3233 85° East 519 597 37,000  Level Albuquerque Center
02:03PM 35.5214 -108.1447 86° East 519 597 37,000  Level Albuquerque Center
02:04PM 35.5308 -107.9661 86° East 519 597 37,000  Level Albuquerque Center
02:05PM 35.5397 -107.8028 86° East 524 603 37,000  Level Albuquerque Center
02:06PM 35.5508 -107.6036 86° East 530 610 37,000  Level Albuquerque Center
02:07PM 35.5614 -107.4200 86° East 538 619 37,000  Level Albuquerque Center
02:08PM 35.5697 -107.2539 86° East 538 619 37,000  Level Albuquerque Center
02:09PM 35.5800 -107.0725 87° East 538 619 37,000  Level Albuquerque Center
02:10PM 35.5878 -106.8708 86° East 538 619 37,000  Level Albuquerque Center
02:11PM 35.5972 -106.6817 87° East 538 619 37,000  Level Albuquerque Center
02:12PM 35.6044 -106.5181 87° East 538 619 37,000  Level Albuquerque Center
02:13PM 35.6114 -106.3317 86° East 538 619 37,000  Level Albuquerque Center
02:14PM 35.6219 -106.1294 87° East 532 612 37,000  Level Albuquerque Center
02:15PM 35.6283 -105.9481 87° East 537 618 37,000  Level Albuquerque Center
02:16PM 35.6367 -105.7742 87° East 542 624 37,000  Level Albuquerque Center
02:17PM 35.6444 -105.5900 88° East 547 629 37,000  Level Albuquerque Center
02:18PM 35.6497 -105.3931 88° East 531 611 37,000  Level Albuquerque Center
02:19PM 35.6550 -105.2061 87° East 531 611 37,000  Level Albuquerque Center
02:20PM 35.6622 -105.0425 86° East 536 617 37,000  Level Albuquerque Center
02:21PM 35.6733 -104.8631 87° East 531 611 37,000  Level Albuquerque Center
02:22PM 35.6819 -104.6839 86° East 537 618 37,000  Level Albuquerque Center
02:23PM 35.6922 -104.5019 86° East 537 618 37,000  Level Albuquerque Center
02:24PM 35.7019 -104.3047 87° East 537 618 37,000  Level Albuquerque Center
02:25PM 35.7100 -104.1253 87° East 537 618 37,000  Level Albuquerque Center
02:26PM 35.7175 -103.9458 86° East 537 618 37,000  Level Albuquerque Center
02:27PM 35.7267 -103.7664 87° East 537 618 37,000  Level Albuquerque Center
02:28PM 35.7339 -103.5894 86° East 525 604 37,000  Level Albuquerque Center
02:29PM 35.7428 -103.4097 87° East 525 604 37,000  Level Albuquerque Center
02:30PM 35.7492 -103.2303 87° East 519 597 37,000  Level Albuquerque Center
02:31PM 35.7561 -103.0739 88° East 519 597 37,000  Level Albuquerque Center
02:32PM 35.7603 -102.8969 87° East 519 597 37,000  Level Albuquerque Center
02:33PM 35.7681 -102.7225 87° East 519 597 37,000  Level Albuquerque Center
02:34PM 35.7750 -102.5300 87° East 519 597 37,000  Level Albuquerque Center
02:35PM 35.7825 -102.3556 88° East 519 597 37,000  Level Albuquerque Center
02:36PM 35.7875 -102.1786 88° East 519 597 37,000  Level Albuquerque Center
02:37PM 35.7925 -102.0039 87° East 514 592 37,000  Level Albuquerque Center
02:38PM 35.7989 -101.8269 89° East 514 592 37,000  Level Albuquerque Center
02:39PM 35.8011 -101.6525 88° East 514 592 37,000  Level Albuquerque Center
02:40PM 35.8072 -101.4753 93° East 519 597 37,000  Level Albuquerque Center
02:41PM 35.8006 -101.2992 96° East 519 597 37,000  Level Albuquerque Center
02:42PM 35.7853 -101.1261 94° East 508 585 37,000  Level Albuquerque Center
02:43PM 35.7761 -100.9503 91° East 508 585 37,000  Level Albuquerque Center
02:44PM 35.7728 -100.7739 91° East 514 592 37,000  Level Albuquerque Center
02:45PM 35.7661 -100.4267 93° East 515 593 37,000  Level Fort Worth Center
02:46PM 35.7597 -100.2525 92° East 515 593 37,000  Level Fort Worth Center
02:48PM 35.7564 -100.1119 92° East 515 593 37,000  Level Fort Worth Center
02:49PM 35.7500 -99.9222 93° East 515 593 37,000  Level Fort Worth Center
02:49PM 35.7431 -99.7483 93° East 515 593 37,000  Level Fort Worth Center
02:51PM 35.7356 -99.5767 92° East 515 593 37,000  Level Fort Worth Center
02:52PM 35.7306 -99.3822 93° East 515 593 37,000  Level Fort Worth Center
02:52PM 35.7228 -99.2108 92° East 515 593 37,000  Level Fort Worth Center
02:54PM 35.7167 -99.0342 92° East 515 593 37,000  Level Fort Worth Center
02:55PM 35.7042 -98.6864 94° East 510 587 37,000  Level Fort Worth Center
02:57PM 35.6953 -98.5125 92° East 510 587 37,000  Level Fort Worth Center
02:58PM 35.6906 -98.3439 92° East 510 587 37,000  Level Fort Worth Center
02:58PM 35.6869 -98.2417 95° East 505 581 37,000  Level Fort Worth Center
02:59PM 35.6756 -98.0678 92° East 521 600 37,000  Level Fort Worth Center
03:00PM 35.6700 -97.9092 93° East 516 594 37,000  Level Fort Worth Center
03:01PM 35.6622 -97.7356 93° East 516 594 37,000  Level Fort Worth Center
03:02PM 35.6542 -97.5642 93° East 516 594 37,000  Level Fort Worth Center
03:03PM 35.6461 -97.3856 95° East 516 594 37,000  Level Fort Worth Center
03:04PM 35.6333 -97.1964 94° East 516 594 37,000  Level Fort Worth Center
03:05PM 35.6225 -97.0203 95° East 516 594 37,000  Level Fort Worth Center
03:06PM 35.6114 -96.8494 94° East 511 588 37,000  Level Fort Worth Center
03:07PM 35.6022 -96.6758 94° East 511 588 37,000  Level Fort Worth Center
03:08PM 35.5928 -96.5228 96° East 511 588 37,000  Level Fort Worth Center
03:09PM 35.5789 -96.3519 94° East 506 582 37,000  Level Fort Worth Center
03:10PM 35.5692 -96.1783 94° East 506 582 37,000  Level Fort Worth Center
03:11PM 35.5589 -96.0053 94° East 506 582 37,000  Level Fort Worth Center
03:12PM 35.5483 -95.8217 95° East 500 575 37,000  Level Fort Worth Center
03:13PM 35.5356 -95.6458 96° East 500 575 37,000  Level Fort Worth Center
03:15PM 35.5114 -95.3714 96° East 502 578 37,000  Level Memphis Center
03:16PM 35.4956 -95.1969 97° East 507 583 37,000  Level Memphis Center
03:17PM 35.4792 -95.0253 97° East 507 583 37,000  Level Memphis Center
03:18PM 35.4625 -94.8536 95° East 507 583 37,000  Level Memphis Center
03:19PM 35.4497 -94.6794 97° East 507 583 37,000  Level Memphis Center
03:20PM 35.4328 -94.5081 96° East 502 578 37,000  Level Memphis Center
03:21PM 35.4158 -94.3211 97° East 507 583 37,000  Level Memphis Center
03:22PM 35.3983 -94.1497 97° East 507 583 37,000  Level Memphis Center
03:23PM 35.3806 -93.9758 97° East 507 583 37,000  Level Memphis Center
03:24PM 35.3644 -93.8044 97° East 507 583 37,000  Level Memphis Center
03:25PM 35.3461 -93.6306 97° East 507 583 37,000  Level Memphis Center
03:26PM 35.3297 -93.4594 97° East 507 583 37,000  Level Memphis Center
03:27PM 35.3144 -93.3164 97° East 499 574 37,000  Level Memphis Center
03:28PM 35.2975 -93.1453 98° East 499 574 37,000  Level Memphis Center
03:29PM 35.2764 -92.9692 97° East 508 585 37,000  Level Memphis Center
03:30PM 35.2589 -92.7983 98° East 513 590 37,000  Level Memphis Center
03:31PM 35.2356 -92.6017 98° East 518 596 37,000  Level Memphis Center
03:32PM 35.2156 -92.4311 97° East 518 596 37,000  Level Memphis Center
03:33PM 35.1972 -92.2603 98° East 513 590 37,000  Level Memphis Center
03:34PM 35.1769 -92.0897 98° East 508 585 37,000  Level Memphis Center
03:35PM 35.1583 -91.9217 99° East 503 579 37,000  Level Memphis Center
03:36PM 35.1372 -91.7511 98° East 503 579 37,000  Level Memphis Center
03:37PM 35.1183 -91.5808 99° East 503 579 37,000  Level Memphis Center
03:38PM 35.0969 -91.4103 97° East 503 579 37,000  Level Memphis Center
03:39PM 35.0794 -91.2478 99° East 498 573 37,000  Level Memphis Center
03:40PM 35.0575 -91.0775 98° East 498 573 37,000  Level Memphis Center
03:41PM 35.0375 -90.9100 98° East 498 573 37,000  Level Memphis Center
03:42PM 35.0172 -90.7425 99° East 506 582 37,000  Level Memphis Center
03:43PM 34.9947 -90.5725 99° East 506 582 37,000  Level Memphis Center
03:44PM 34.9719 -90.4053 99° East 495 570 37,000  Level Memphis Center
03:45PM 34.9508 -90.2381 99° East 506 582 37,000  Level Memphis Center
03:46PM 34.9297 -90.0683 100° East 506 582 37,000  Level Memphis Center
03:47PM 34.9064 -89.9014 100° East 499 574 37,000  Level Memphis Center
03:48PM 34.8806 -89.7267 99° East 511 588 37,000  Level Memphis Center
03:49PM 34.8586 -89.5547 99° East 511 588 37,000 -660 Level Memphis Center
03:50PM 34.8367 -89.3931 100° East 506 582 35,700 -1,020 Descending Memphis Center
03:51PM 34.8122 -89.2264 99° East 501 577 35,000 -540 Descending Memphis Center
03:52PM 34.7897 -89.0625 100° East 501 577 34,700 -840 Descending Memphis Center
03:53PM 34.7650 -88.8933 100° East 507 583 33,400 -900 Descending Memphis Center
03:54PM 34.7419 -88.7269 100° East 502 578 33,000 -240 Descending Memphis Center
03:55PM 34.7167 -88.5583 100° East 502 578 33,000  Level Memphis Center
03:56PM 34.6936 -88.3994 101° East 497 572 33,000  Level Memphis Center
03:57PM 34.6678 -88.2308 100° East 497 572 33,000  Level Memphis Center
03:58PM 34.6461 -88.0750 101° East 512 589 33,000  Level Memphis Center
03:59PM 34.6200 -87.9067 101° East 512 589 33,000  Level Memphis Center
04:00PM 34.5936 -87.7408 100° East 506 582 33,000  Level Memphis Center
04:02PM 34.5350 -87.3319 102° East 502 578 33,000  Level Atlanta Center
04:03PM 34.5114 -87.1975 101° East 507 583 33,000  Level Atlanta Center
04:04PM 34.4825 -87.0150 101° East 507 583 33,000  Level Atlanta Center
04:05PM 34.4553 -86.8478 101° East 507 583 33,000  Level Atlanta Center
04:06PM 34.4275 -86.6806 101° East 507 583 33,000  Level Atlanta Center
04:07PM 34.4017 -86.5136 102° East 507 583 33,000  Level Atlanta Center
04:08PM 34.3736 -86.3492 102° East 507 583 33,000  Level Atlanta Center
04:09PM 34.3417 -86.1647 101° East 507 583 33,000 -960 Level Atlanta Center
04:10PM 34.3150 -86.0006 101° East 507 583 31,100 -2,640 Descending Atlanta Center
04:11PM 34.2883 -85.8339 102° East 507 583 27,800 -3,000 Descending Atlanta Center
04:12PM 34.2614 -85.6750 102° East 497 572 25,200 -2,580 Descending Atlanta Center
04:13PM 34.2342 -85.5211 102° East 474 545 22,700 -2,340 Descending Atlanta Center
04:14PM 34.2106 -85.3878 102° East 463 533 20,600 -2,340 Descending Atlanta Center
04:15PM 34.1850 -85.2417 106° East 448 516 18,100 -2,400 Descending Atlanta Center
04:16PM 34.1528 -85.1081 132° Southeast 429 494 15,900 -2,100 Descending Atlanta Center
04:17PM 34.0764 -85.0069 134° Southeast 400 460 14,000 -1,320 Descending Atlanta Center
04:18PM 34.0019 -84.9133 134° Southeast 390 449 13,300 -1,020 Descending Atlanta Center
04:19PM 33.9294 -84.8225 132° Southeast 383 441 12,000 -720 Descending Atlanta Center
04:20PM 33.8500 -84.7167 132° Southeast 371 427 12,000  Level Atlanta TRACON
04:21PM 33.8000 -84.6500 132° Southeast 288 331 12,000  Level Atlanta TRACON
04:22PM 33.7500 -84.5833 103° East 258 297 12,000 -840 Level Atlanta TRACON
04:23PM 33.7333 -84.5000 90° East 266 306 10,400 -1,800 Descending Atlanta TRACON
04:24PM 33.7333 -84.4167 90° East 267 307 8,500 -1,800 Descending Atlanta TRACON
04:25PM 33.7333 -84.3333 90° East 251 289 6,800 -1,560 Descending Atlanta TRACON
04:26PM 33.7333 -84.2500 107° East 237 273 5,400 -1,140 Descending Atlanta TRACON
04:27PM 33.7167 -84.1833 196° South 233 268 4,700 -840 Descending Atlanta TRACON
04:28PM 33.6667 -84.2000 253° West 196 226 3,800 -960 Descending Atlanta TRACON
04:29PM 33.6500 -84.2667 270° West 184 212 2,700 -720 Descending Atlanta TRACON
04:30PM 33.6500 -84.3167 270° West 166 191 2,400 -540 Descending Atlanta TRACON
04:31PM 33.6500 -84.3667 270° West 130 150 1,700 -720 Descending Atlanta TRACON